Time;durP1;ratioP1;P1;durP2;ratioP2;P2;SDS_P1;SDS_P2;PMS_P1;PMS_P2;Temp;Humidity;BMP_temperature;BMP_pressure;BME280_temperature;BME280_humidity;BME280_pressure;Samples;Min_cycle;Max_cycle;Signal;HPM_P1;HPM_P2
2023/05/24 04:49:56;;;;;;;13.68;3.42;;;15.10;65.20;;;;;;4780974;29;20456;-69
2023/05/24 04:52:24;;;;;;;19.75;4.32;;;15.10;65.20;;;;;;4770131;30;20063;-69
2023/05/24 04:54:54;;;;;;;14.50;4.03;;;15.20;65.40;;;;;;4772182;30;20441;-69
2023/05/24 04:57:20;;;;;;;21.17;4.20;;;15.20;65.00;;;;;;4771968;30;20063;-69
2023/05/24 04:59:46;;;;;;;18.52;4.13;;;15.20;65.00;;;;;;4770815;30;20455;-69
2023/05/24 05:02:11;;;;;;;19.55;4.70;;;15.20;64.90;;;;;;4772368;30;20066;-68
2023/05/24 05:04:37;;;;;;;18.33;4.45;;;15.20;64.90;;;;;;4772269;30;20055;-68
2023/05/24 05:07:03;;;;;;;15.60;4.78;;;15.20;65.20;;;;;;4773484;30;20363;-68
2023/05/24 05:09:29;;;;;;;16.50;4.57;;;15.20;65.40;;;;;;4772088;30;20082;-70
2023/05/24 05:11:55;;;;;;;22.92;4.63;;;15.30;65.40;;;;;;4772162;30;20060;-69
2023/05/24 05:14:20;;;;;;;20.15;4.70;;;15.30;65.50;;;;;;4770804;30;20055;-70
2023/05/24 05:16:46;;;;;;;20.45;4.68;;;15.30;65.80;;;;;;4771882;30;20051;-70
2023/05/24 05:19:12;;;;;;;22.55;5.38;;;15.30;66.00;;;;;;4756249;30;20066;-69
2023/05/24 05:21:38;;;;;;;28.75;5.88;;;15.30;65.90;;;;;;4771239;30;20051;-68
2023/05/24 05:24:05;;;;;;;24.60;4.80;;;15.30;66.10;;;;;;4753247;30;20094;-71
2023/05/24 05:26:30;;;;;;;25.45;4.85;;;15.30;66.20;;;;;;4765654;30;20071;-69
2023/05/24 05:28:57;;;;;;;21.77;5.20;;;15.30;66.00;;;;;;4771812;30;20055;-70
2023/05/24 05:31:23;;;;;;;25.10;5.38;;;15.30;65.90;;;;;;4771463;30;20044;-70
2023/05/24 05:33:49;;;;;;;22.38;4.75;;;15.30;66.00;;;;;;4771341;30;20047;-67
2023/05/24 05:36:16;;;;;;;18.58;4.18;;;15.30;66.00;;;;;;4771516;30;20059;-67
2023/05/24 05:38:41;;;;;;;23.25;4.78;;;15.30;66.10;;;;;;4771421;30;20044;-66
2023/05/24 05:41:07;;;;;;;34.65;6.18;;;15.30;66.20;;;;;;4771423;30;20082;-68
2023/05/24 05:43:33;;;;;;;37.38;6.25;;;15.40;67.70;;;;;;4783989;30;20337;-69
2023/05/24 05:46:02;;;;;;;34.22;6.03;;;15.50;68.80;;;;;;4771785;30;20434;-69
2023/05/24 05:48:28;;;;;;;22.80;5.22;;;15.60;68.90;;;;;;4770832;30;20120;-67
2023/05/24 05:50:53;;;;;;;29.15;5.10;;;15.60;67.60;;;;;;4772032;30;20056;-67
2023/05/24 05:53:19;;;;;;;24.05;5.20;;;15.60;67.00;;;;;;4771908;30;20098;-68
2023/05/24 05:55:45;;;;;;;25.58;5.10;;;15.60;66.70;;;;;;4763749;30;20044;-67
2023/05/24 05:58:11;;;;;;;23.38;4.80;;;15.60;66.60;;;;;;4761909;30;20170;-67
2023/05/24 06:00:37;;;;;;;28.60;4.90;;;15.70;66.60;;;;;;4771405;30;20051;-68
2023/05/24 06:03:03;;;;;;;27.65;5.15;;;15.60;66.50;;;;;;4741467;30;20067;-68
2023/05/24 06:05:29;;;;;;;30.92;6.85;;;15.70;66.60;;;;;;4771987;30;20047;-70
2023/05/24 06:08:01;;;;;;;32.00;5.43;;;15.70;66.80;;;;;;4765462;30;20052;-68
2023/05/24 06:10:28;;;;;;;65.37;8.57;;;15.70;66.90;;;;;;4754165;30;20114;-68
2023/05/24 06:12:53;;;;;;;49.90;7.75;;;15.70;67.30;;;;;;4753737;30;20048;-69
2023/05/24 06:15:21;;;;;;;54.70;7.88;;;15.70;67.50;;;;;;4753779;30;20123;-68
2023/05/24 06:17:48;;;;;;;43.42;6.18;;;15.70;67.20;;;;;;4743071;30;20086;-69
2023/05/24 06:20:15;;;;;;;25.48;5.20;;;15.70;67.20;;;;;;4772215;30;20466;-69
2023/05/24 06:22:42;;;;;;;22.02;5.50;;;15.70;66.90;;;;;;4756047;30;20448;-69
2023/05/24 06:25:08;;;;;;;18.73;4.50;;;15.70;66.50;;;;;;4771412;30;20052;-70
2023/05/24 06:27:34;;;;;;;16.33;4.20;;;15.70;66.30;;;;;;4768053;30;20056;-68
2023/05/24 06:30:00;;;;;;;21.63;3.92;;;15.70;66.00;;;;;;4753700;30;20105;-70
2023/05/24 06:32:25;;;;;;;16.40;4.95;;;15.70;65.70;;;;;;4753967;30;20479;-68
2023/05/24 06:34:51;;;;;;;19.45;4.13;;;15.60;65.70;;;;;;4757093;30;20056;-68
2023/05/24 06:37:17;;;;;;;20.92;4.47;;;15.60;65.80;;;;;;4757116;30;20135;-68
2023/05/24 06:39:43;;;;;;;25.88;4.78;;;15.70;65.90;;;;;;4741419;30;20043;-68
2023/05/24 06:42:08;;;;;;;19.20;4.40;;;15.70;66.10;;;;;;4757100;30;20063;-68
2023/05/24 06:44:34;;;;;;;20.25;3.30;;;15.70;66.10;;;;;;4758723;30;20063;-68
2023/05/24 06:47:00;;;;;;;21.45;4.53;;;15.70;66.30;;;;;;4757453;30;20051;-69
2023/05/24 06:49:27;;;;;;;25.02;4.15;;;15.80;66.20;;;;;;4756162;30;20067;-67
2023/05/24 06:51:52;;;;;;;21.00;4.80;;;15.80;65.90;;;;;;4756825;30;20052;-68
2023/05/24 06:54:19;;;;;;;19.98;4.25;;;15.80;65.70;;;;;;4756975;30;20066;-68
2023/05/24 06:56:45;;;;;;;23.17;4.18;;;15.80;65.60;;;;;;4756397;30;20048;-68
2023/05/24 06:59:13;;;;;;;26.08;5.10;;;15.80;65.60;;;;;;4756770;30;20060;-69
2023/05/24 07:01:41;;;;;;;23.55;4.40;;;15.80;65.70;;;;;;4756543;30;20514;-69
2023/05/24 07:04:08;;;;;;;21.00;4.05;;;15.80;65.40;;;;;;4756737;30;20145;-68
2023/05/24 07:06:34;;;;;;;14.60;3.28;;;15.80;64.90;;;;;;4772281;30;20109;-69
2023/05/24 07:09:03;;;;;;;18.13;4.30;;;15.90;64.70;;;;;;4773759;30;20048;-68
2023/05/24 07:11:29;;;;;;;17.35;3.85;;;15.90;64.60;;;;;;4773253;30;20067;-69
2023/05/24 07:13:56;;;;;;;14.27;4.07;;;15.90;64.70;;;;;;4757945;30;20056;-68
2023/05/24 07:16:22;;;;;;;14.68;3.75;;;15.90;64.90;;;;;;4772060;30;20051;-68
2023/05/24 07:18:47;;;;;;;18.38;3.83;;;16.00;65.10;;;;;;4773247;30;20056;-68
2023/05/24 07:21:13;;;;;;;22.20;4.22;;;16.00;65.30;;;;;;4774160;30;20048;-68
2023/05/24 07:23:39;;;;;;;18.05;3.15;;;16.00;65.30;;;;;;4773127;30;20105;-68
2023/05/24 07:26:05;;;;;;;15.02;4.00;;;16.00;65.10;;;;;;4773821;30;20062;-68
2023/05/24 07:28:32;;;;;;;16.70;4.00;;;16.10;64.90;;;;;;4758349;30;20380;-68
2023/05/24 07:30:57;;;;;;;10.68;3.47;;;16.10;64.70;;;;;;4773789;30;20051;-69
2023/05/24 07:33:23;;;;;;;14.20;3.17;;;16.10;64.60;;;;;;4761905;30;20536;-68
2023/05/24 07:35:51;;;;;;;10.88;3.10;;;16.10;64.50;;;;;;4756047;30;20058;-69
2023/05/24 07:38:17;;;;;;;14.38;3.75;;;16.10;64.50;;;;;;4769527;30;20490;-67
2023/05/24 07:40:43;;;;;;;15.80;3.17;;;16.10;64.40;;;;;;4755560;30;20468;-68
2023/05/24 07:43:09;;;;;;;12.40;2.97;;;16.10;64.40;;;;;;4764912;30;20093;-68
2023/05/24 07:45:34;;;;;;;12.48;3.33;;;16.10;64.50;;;;;;4772884;30;20363;-68
2023/05/24 07:48:00;;;;;;;11.75;2.55;;;16.10;64.30;;;;;;4773929;30;20384;-67
2023/05/24 07:50:27;;;;;;;8.27;2.75;;;16.10;64.30;;;;;;4773037;30;20091;-68
2023/05/24 07:52:55;;;;;;;10.20;2.67;;;16.10;64.30;;;;;;4750171;30;20118;-69
2023/05/24 07:55:21;;;;;;;9.68;2.72;;;16.10;64.20;;;;;;4755633;30;20059;-68
2023/05/24 07:57:46;;;;;;;10.15;2.83;;;16.10;64.20;;;;;;4755745;30;20044;-68
2023/05/24 08:00:15;;;;;;;11.23;2.78;;;16.10;64.40;;;;;;4755877;30;20135;-67
2023/05/24 08:02:42;;;;;;;9.93;3.25;;;16.10;64.40;;;;;;4760705;30;20066;-68
2023/05/24 08:05:11;;;;;;;10.43;2.88;;;16.10;64.50;;;;;;4772833;30;20467;-68
2023/05/24 08:07:37;;;;;;;13.73;3.15;;;16.20;64.30;;;;;;4773097;30;20131;-68
2023/05/24 08:10:03;;;;;;;11.32;3.20;;;16.20;64.10;;;;;;4773349;30;20155;-68
2023/05/24 08:12:29;;;;;;;10.52;2.58;;;16.20;64.00;;;;;;4769090;30;20048;-68
2023/05/24 08:14:55;;;;;;;9.82;2.45;;;16.20;64.10;;;;;;4755622;30;20472;-67
2023/05/24 08:17:21;;;;;;;9.68;2.47;;;16.20;64.10;;;;;;4755311;30;20441;-68
2023/05/24 08:19:47;;;;;;;11.43;2.97;;;16.20;64.20;;;;;;4761449;30;20040;-67
2023/05/24 08:22:13;;;;;;;12.82;2.90;;;16.20;64.60;;;;;;4772145;30;20387;-67
2023/05/24 08:24:39;;;;;;;8.88;2.95;;;16.20;64.50;;;;;;4772642;30;20060;-67
2023/05/24 08:27:06;;;;;;;12.07;2.83;;;16.20;65.00;;;;;;4772758;30;20436;-68
2023/05/24 08:29:32;;;;;;;10.55;2.67;;;16.20;64.10;;;;;;4772945;30;20134;-67
2023/05/24 08:31:58;;;;;;;8.90;2.30;;;16.20;64.00;;;;;;4772979;30;20346;-67
2023/05/24 08:34:24;;;;;;;8.77;2.60;;;16.20;64.00;;;;;;4771935;30;20056;-68
2023/05/24 08:36:50;;;;;;;8.30;2.50;;;16.20;63.80;;;;;;4772961;30;20070;-67
2023/05/24 08:39:15;;;;;;;10.25;2.47;;;16.20;64.20;;;;;;4772352;30;20139;-67
2023/05/24 08:41:41;;;;;;;11.93;3.08;;;16.20;64.10;;;;;;4773283;30;20478;-68
2023/05/24 08:44:08;;;;;;;11.40;2.80;;;16.20;63.90;;;;;;4758545;30;20052;-67
2023/05/24 08:46:35;;;;;;;12.82;2.63;;;16.20;64.30;;;;;;4755393;30;20139;-68
2023/05/24 08:49:06;;;;;;;9.55;2.63;;;16.20;63.80;;;;;;4754610;30;20071;-69
2023/05/24 08:51:32;;;;;;;8.18;2.78;;;16.20;64.20;;;;;;4745821;30;20051;-68
2023/05/24 08:53:59;;;;;;;9.50;3.08;;;16.20;63.70;;;;;;4756612;30;20060;-69
2023/05/24 08:56:25;;;;;;;8.20;2.63;;;16.20;63.80;;;;;;4756626;30;20103;-66
2023/05/24 08:58:53;;;;;;;9.98;2.83;;;16.20;63.60;;;;;;4756871;30;20048;-66
2023/05/24 09:01:19;;;;;;;6.22;2.33;;;16.30;64.50;;;;;;4766953;30;20056;-67
2023/05/24 09:03:46;;;;;;;6.15;2.17;;;16.20;63.60;;;;;;4754362;30;20059;-67
2023/05/24 09:06:14;;;;;;;11.55;2.92;;;16.30;64.20;;;;;;4754549;30;20377;-67
2023/05/24 09:08:41;;;;;;;12.40;3.00;;;16.30;64.10;;;;;;4754803;30;20067;-66
2023/05/24 09:11:08;;;;;;;8.15;3.03;;;16.20;63.90;;;;;;4757276;30;20345;-66
2023/05/24 09:13:34;;;;;;;11.77;3.20;;;16.20;63.80;;;;;;4772294;30;20535;-67
2023/05/24 09:16:00;;;;;;;12.52;3.45;;;16.20;63.80;;;;;;4772038;30;20376;-66
2023/05/24 09:18:26;;;;;;;16.42;3.40;;;16.20;64.20;;;;;;4771780;30;20463;-67
2023/05/24 09:20:52;;;;;;;16.73;2.80;;;16.20;63.70;;;;;;4771125;30;20067;-69
2023/05/24 09:23:23;;;;;;;10.18;3.33;;;16.20;63.70;;;;;;4754406;30;20060;-67
2023/05/24 09:25:49;;;;;;;16.00;3.00;;;16.20;63.50;;;;;;4764335;30;20448;-68
2023/05/24 09:28:17;;;;;;;9.00;3.17;;;16.20;63.60;;;;;;4771363;30;20058;-67
2023/05/24 09:30:44;;;;;;;13.85;3.25;;;16.20;63.50;;;;;;4770874;30;20059;-68
2023/05/24 09:33:11;;;;;;;19.23;4.45;;;16.20;63.40;;;;;;4771139;30;20487;-66
2023/05/24 09:35:40;;;;;;;19.88;3.40;;;16.20;64.10;;;;;;4771904;30;20101;-67
2023/05/24 09:38:06;;;;;;;17.77;3.13;;;16.30;64.50;;;;;;4772406;30;20062;-67
2023/05/24 09:40:32;;;;;;;19.23;3.42;;;16.30;64.70;;;;;;4756330;30;20070;-67
2023/05/24 09:43:07;;;;;;;11.77;2.83;;;16.30;64.30;;;;;;4756477;30;20056;-67
2023/05/24 09:45:42;;;;;;;16.80;3.30;;;16.30;63.90;;;;;;4754388;30;20063;-67
2023/05/24 09:48:11;;;;;;;26.77;4.63;;;16.30;64.20;;;;;;4754355;30;20122;-68
2023/05/24 09:50:37;;;;;;;30.27;4.95;;;16.30;64.90;;;;;;4754136;30;20056;-67
2023/05/24 09:53:03;;;;;;;22.77;4.32;;;16.30;64.70;;;;;;4767507;30;20055;-67
2023/05/24 09:55:29;;;;;;;15.25;4.00;;;16.30;64.00;;;;;;4771827;30;20056;-67
2023/05/24 09:58:03;;;;;;;13.40;2.83;;;16.30;64.20;;;;;;4771668;30;20056;-67
2023/05/24 10:00:38;;;;;;;14.20;3.72;;;16.20;63.90;;;;;;4756350;30;20496;-66
2023/05/24 10:03:09;;;;;;;11.77;3.03;;;16.20;63.80;;;;;;4770896;30;20066;-66
2023/05/24 10:05:35;;;;;;;11.10;2.70;;;16.30;63.90;;;;;;4771424;30;20461;-66
2023/05/24 10:08:08;;;;;;;10.00;2.55;;;16.30;63.70;;;;;;4772537;30;20467;-67
2023/05/24 10:10:33;;;;;;;10.13;3.00;;;16.30;63.50;;;;;;4775051;30;20059;-67
2023/05/24 10:13:00;;;;;;;11.25;2.75;;;16.30;63.50;;;;;;4760860;30;20129;-66
2023/05/24 10:15:26;;;;;;;6.38;2.55;;;16.30;63.80;;;;;;4757187;30;20058;-67
2023/05/24 10:17:56;;;;;;;10.02;2.65;;;16.30;63.70;;;;;;4757186;30;20051;-67
2023/05/24 10:20:23;;;;;;;10.90;2.63;;;16.30;63.70;;;;;;4757163;30;20484;-66
2023/05/24 10:23:02;;;;;;;8.77;3.00;;;16.30;63.70;;;;;;4768776;30;20047;-66
2023/05/24 10:25:28;;;;;;;9.55;2.38;;;16.30;63.50;;;;;;4774780;30;20068;-66
2023/05/24 10:28:02;;;;;;;8.52;2.40;;;16.30;63.50;;;;;;4762139;30;20083;-67
2023/05/24 10:30:40;;;;;;;10.05;2.65;;;16.30;63.40;;;;;;4741618;30;20052;-67
2023/05/24 10:33:07;;;;;;;11.10;2.47;;;16.40;63.70;;;;;;4756920;30;20060;-67
2023/05/24 10:35:36;;;;;;;10.13;2.80;;;16.30;63.60;;;;;;4757249;30;20063;-67
2023/05/24 10:38:06;;;;;;;8.25;2.20;;;16.40;63.80;;;;;;4753468;30;20066;-66
2023/05/24 10:40:32;;;;;;;10.30;2.47;;;16.40;63.50;;;;;;4774634;30;20130;-67
2023/05/24 10:42:59;;;;;;;8.43;2.58;;;16.40;63.50;;;;;;4774925;30;20048;-67
2023/05/24 10:45:34;;;;;;;11.70;2.55;;;16.40;63.30;;;;;;4774522;30;20056;-66
2023/05/24 10:48:12;;;;;;;12.20;2.60;;;16.40;63.30;;;;;;4762005;30;20404;-67
2023/05/24 10:50:38;;;;;;;12.70;2.50;;;16.40;64.00;;;;;;4756668;30;20063;-67
2023/05/24 10:53:15;;;;;;;13.95;2.47;;;16.30;64.00;;;;;;4770833;30;20059;-68
2023/05/24 10:55:51;;;;;;;8.52;2.92;;;16.30;63.80;;;;;;4773808;30;20349;-67
2023/05/24 10:58:17;;;;;;;15.23;3.38;;;16.40;63.80;;;;;;4773535;30;20084;-67
2023/05/24 11:00:44;;;;;;;10.27;3.05;;;16.40;63.60;;;;;;4774572;29;20048;-68
2023/05/24 11:03:12;;;;;;;9.38;2.67;;;16.40;63.00;;;;;;4773556;30;20059;-66
2023/05/24 11:05:50;;;;;;;6.15;2.60;;;16.40;63.10;;;;;;4773596;30;20060;-67
2023/05/24 11:08:30;;;;;;;11.32;2.97;;;16.40;62.80;;;;;;4773624;30;20106;-68
2023/05/24 11:11:15;;;;;;;7.28;2.75;;;16.30;63.90;;;;;;4774078;30;20055;-67
2023/05/24 11:13:41;;;;;;;9.32;2.90;;;16.40;64.00;;;;;;4772957;30;20066;-67
2023/05/24 11:16:07;;;;;;;13.57;3.17;;;16.30;64.10;;;;;;4773392;30;20353;-67
2023/05/24 11:18:37;;;;;;;10.40;2.72;;;16.40;64.20;;;;;;4772338;30;20047;-70
2023/05/24 11:21:05;;;;;;;8.80;2.47;;;16.40;63.60;;;;;;4773126;30;20108;-64
2023/05/24 11:23:31;;;;;;;8.70;2.40;;;16.40;63.70;;;;;;4774544;30;20380;-66
2023/05/24 11:25:57;;;;;;;4.63;2.20;;;16.40;63.00;;;;;;4773883;30;20093;-67
2023/05/24 11:28:23;;;;;;;9.77;2.83;;;16.40;62.70;;;;;;4760284;30;20084;-67
2023/05/24 11:30:49;;;;;;;9.70;2.60;;;16.40;62.80;;;;;;4769236;30;20063;-66
2023/05/24 11:33:17;;;;;;;15.57;3.17;;;16.40;62.90;;;;;;4773618;30;20137;-67
2023/05/24 11:35:43;;;;;;;13.93;2.92;;;16.40;63.80;;;;;;4773617;30;20064;-66
2023/05/24 11:38:12;;;;;;;12.63;2.53;;;16.40;63.90;;;;;;4772725;30;20095;-67
2023/05/24 11:40:45;;;;;;;9.18;2.25;;;16.50;63.30;;;;;;4773409;30;20048;-66
2023/05/24 11:43:16;;;;;;;9.77;2.90;;;16.40;62.90;;;;;;4773772;30;20131;-67
2023/05/24 11:45:50;;;;;;;7.25;3.00;;;16.50;63.20;;;;;;4773897;30;20063;-68
2023/05/24 11:48:17;;;;;;;7.32;2.08;;;16.40;63.10;;;;;;4771198;30;20131;-65
2023/05/24 11:50:44;;;;;;;10.82;2.58;;;16.50;63.20;;;;;;4773349;30;20087;-67
2023/05/24 11:53:11;;;;;;;8.57;2.55;;;16.50;63.40;;;;;;4787331;30;20062;-68
2023/05/24 11:55:39;;;;;;;10.45;2.58;;;16.50;63.50;;;;;;4756427;30;20056;-68
2023/05/24 11:58:12;;;;;;;13.13;2.97;;;16.50;63.90;;;;;;4772950;30;20081;-67
2023/05/24 12:00:38;;;;;;;9.25;2.85;;;16.50;64.30;;;;;;4773521;30;20073;-66
2023/05/24 12:03:06;;;;;;;13.20;2.90;;;16.60;63.40;;;;;;4757703;30;20055;-67
2023/05/24 12:05:36;;;;;;;9.43;3.08;;;16.60;63.30;;;;;;4772925;30;20408;-66
2023/05/24 12:08:04;;;;;;;16.42;3.03;;;16.60;63.20;;;;;;4764598;30;20063;-67
2023/05/24 12:10:34;;;;;;;13.07;2.83;;;16.60;63.40;;;;;;4755202;30;20051;-67
2023/05/24 12:13:06;;;;;;;7.45;2.58;;;16.50;63.30;;;;;;4755342;30;20060;-66
2023/05/24 12:15:32;;;;;;;8.90;2.47;;;16.50;63.60;;;;;;4755078;30;20127;-67
2023/05/24 12:17:58;;;;;;;11.63;2.83;;;16.60;63.60;;;;;;4762266;30;20553;-67
2023/05/24 12:20:26;;;;;;;8.77;2.00;;;16.60;63.60;;;;;;4773316;30;20063;-66
2023/05/24 12:22:53;;;;;;;14.32;2.85;;;16.60;63.70;;;;;;4773138;30;20054;-67
2023/05/24 12:25:21;;;;;;;8.35;2.90;;;16.60;63.50;;;;;;4773262;30;20063;-66
2023/05/24 12:27:52;;;;;;;7.45;2.60;;;16.60;63.80;;;;;;4767189;30;20052;-67
2023/05/24 12:30:24;;;;;;;9.90;2.25;;;16.60;63.80;;;;;;4754926;30;20060;-66
2023/05/24 12:32:53;;;;;;;10.60;2.58;;;16.60;64.20;;;;;;4755010;30;20377;-66
2023/05/24 12:35:20;;;;;;;7.50;2.40;;;16.60;64.00;;;;;;4754801;30;20056;-67
2023/05/24 12:37:47;;;;;;;9.55;2.72;;;16.60;63.90;;;;;;4759744;30;20070;-66
2023/05/24 12:40:20;;;;;;;8.77;2.58;;;16.60;64.20;;;;;;4756771;30;20059;-67
2023/05/24 12:42:56;;;;;;;10.13;2.67;;;16.60;64.70;;;;;;4772729;30;20070;-66
2023/05/24 12:45:26;;;;;;;13.25;3.50;;;16.60;64.80;;;;;;4772437;30;20059;-69
2023/05/24 12:47:58;;;;;;;15.82;2.83;;;16.60;64.70;;;;;;4766347;30;20056;-67
2023/05/24 12:50:25;;;;;;;16.35;3.38;;;16.60;65.00;;;;;;4755458;30;20424;-67
2023/05/24 12:52:54;;;;;;;11.85;3.28;;;16.60;65.00;;;;;;4754826;30;20048;-66
2023/05/24 12:55:23;;;;;;;8.98;3.00;;;16.70;65.00;;;;;;4755090;30;20056;-68
2023/05/24 12:57:52;;;;;;;14.85;3.20;;;16.70;64.80;;;;;;4759387;30;20094;-68
2023/05/24 13:00:20;;;;;;;24.60;3.17;;;16.70;65.00;;;;;;4762849;30;20113;-67
2023/05/24 13:02:46;;;;;;;11.00;2.92;;;16.70;64.60;;;;;;4770847;30;20059;-67
2023/05/24 13:05:12;;;;;;;25.38;4.22;;;16.70;64.40;;;;;;4771193;30;20060;-68
2023/05/24 13:07:38;;;;;;;13.90;3.05;;;16.80;65.70;;;;;;4771676;30;20118;-67
2023/05/24 13:10:07;;;;;;;16.00;3.22;;;16.70;66.10;;;;;;4772309;30;20091;-68
2023/05/24 13:12:33;;;;;;;12.38;3.17;;;16.80;66.30;;;;;;4772169;30;20052;-67
2023/05/24 13:14:59;;;;;;;11.98;3.53;;;16.80;66.20;;;;;;4772305;30;20070;-68
2023/05/24 13:17:24;;;;;;;14.85;2.58;;;16.80;65.90;;;;;;4770373;30;20048;-67
2023/05/24 13:19:51;;;;;;;15.43;2.90;;;16.80;65.70;;;;;;4765417;30;20164;-67
2023/05/24 13:22:16;;;;;;;12.40;3.45;;;16.80;65.70;;;;;;4746907;30;20055;-67
2023/05/24 13:24:42;;;;;;;10.75;3.35;;;16.80;65.70;;;;;;4774692;30;20200;-68
2023/05/24 13:27:09;;;;;;;22.92;4.18;;;16.80;65.20;;;;;;4774533;30;20068;-68
2023/05/24 13:29:36;;;;;;;32.55;4.75;;;16.80;65.30;;;;;;4759132;30;20077;-67
2023/05/24 13:32:02;;;;;;;23.58;4.25;;;16.90;65.70;;;;;;4789490;29;20059;-65
2023/05/24 13:34:28;;;;;;;27.98;4.70;;;16.90;65.70;;;;;;4789616;30;20061;-67
2023/05/24 13:36:54;;;;;;;31.27;5.35;;;16.90;65.90;;;;;;4790237;30;20119;-66
2023/05/24 13:39:20;;;;;;;25.77;4.30;;;16.90;66.20;;;;;;4789737;30;20047;-65
2023/05/24 13:41:47;;;;;;;28.63;4.78;;;16.90;66.40;;;;;;4789668;29;20059;-66
2023/05/24 13:44:14;;;;;;;28.40;4.97;;;16.90;66.40;;;;;;4775312;30;20059;-67
2023/05/24 13:46:41;;;;;;;31.13;4.53;;;16.90;66.30;;;;;;4788301;30;20116;-66
2023/05/24 13:49:08;;;;;;;24.55;4.43;;;16.90;66.20;;;;;;4780153;30;20122;-69
2023/05/24 13:51:34;;;;;;;21.15;4.55;;;16.90;66.20;;;;;;4791707;30;20051;-68
2023/05/24 13:54:00;;;;;;;15.65;3.58;;;17.00;66.30;;;;;;4779506;30;20094;-64
2023/05/24 13:56:31;;;;;;;15.55;3.58;;;16.90;66.40;;;;;;4789367;29;20055;-65
2023/05/24 13:58:58;;;;;;;12.35;3.47;;;16.90;65.60;;;;;;4775579;30;20111;-66
2023/05/24 14:01:24;;;;;;;15.07;3.88;;;17.00;65.10;;;;;;4774738;30;20460;-66
2023/05/24 14:03:50;;;;;;;16.30;3.35;;;16.90;65.10;;;;;;4759569;30;20078;-66
2023/05/24 14:06:18;;;;;;;23.33;4.30;;;16.90;65.10;;;;;;4774062;30;20047;-67
2023/05/24 14:08:44;;;;;;;13.23;3.38;;;16.90;65.00;;;;;;4774694;30;20493;-66
2023/05/24 14:11:13;;;;;;;18.95;3.97;;;16.90;65.30;;;;;;4775396;30;20451;-67
2023/05/24 14:13:39;;;;;;;13.45;3.33;;;16.90;65.50;;;;;;4775302;30;20461;-66
2023/05/24 14:16:05;;;;;;;11.90;3.83;;;16.90;65.70;;;;;;4775956;30;20051;-67
2023/05/24 14:18:31;;;;;;;13.80;3.53;;;16.90;65.60;;;;;;4774873;30;20059;-65
2023/05/24 14:20:57;;;;;;;11.18;3.30;;;16.90;65.60;;;;;;4781570;30;20070;-65
2023/05/24 14:23:22;;;;;;;14.70;3.40;;;16.90;65.60;;;;;;4777951;30;20058;-65
2023/05/24 14:25:50;;;;;;;12.25;3.47;;;16.90;65.50;;;;;;4791889;29;20058;-66
2023/05/24 14:28:16;;;;;;;14.18;3.20;;;16.90;65.40;;;;;;4792920;30;20128;-68
2023/05/24 14:30:42;;;;;;;14.43;3.03;;;16.90;65.20;;;;;;4775311;30;20048;-65
2023/05/24 14:33:10;;;;;;;10.98;3.17;;;16.90;65.00;;;;;;4775069;30;20057;-66
2023/05/24 14:35:39;;;;;;;9.60;3.38;;;16.90;65.20;;;;;;4778461;30;20054;-67
2023/05/24 14:38:07;;;;;;;12.60;2.80;;;16.90;65.20;;;;;;4792834;30;20452;-66
2023/05/24 14:40:33;;;;;;;13.60;3.05;;;16.90;64.90;;;;;;4792430;30;20058;-66
2023/05/24 14:43:03;;;;;;;13.98;3.17;;;16.80;64.30;;;;;;4790245;30;20051;-67
2023/05/24 14:45:28;;;;;;;9.80;2.97;;;16.80;63.90;;;;;;4772423;30;20122;-66
2023/05/24 14:47:56;;;;;;;16.33;3.38;;;16.80;63.60;;;;;;4773969;30;20143;-66
2023/05/24 14:50:21;;;;;;;10.88;2.72;;;16.80;63.30;;;;;;4774227;30;20065;-66
2023/05/24 14:52:47;;;;;;;8.98;3.60;;;16.70;63.20;;;;;;4773834;30;20135;-65
2023/05/24 14:55:13;;;;;;;10.30;2.92;;;16.70;63.30;;;;;;4774209;30;20479;-66
2023/05/24 14:57:40;;;;;;;14.77;3.42;;;16.60;63.30;;;;;;4775157;30;20087;-66
2023/05/24 15:00:07;;;;;;;8.98;2.25;;;16.60;63.60;;;;;;4781440;30;20059;-67
2023/05/24 15:02:33;;;;;;;11.27;3.05;;;16.60;64.00;;;;;;4792484;30;20059;-67
2023/05/24 15:04:59;;;;;;;17.77;3.35;;;16.60;64.30;;;;;;4787434;29;20043;-65
2023/05/24 15:07:25;;;;;;;12.70;3.00;;;16.70;64.50;;;;;;4774327;30;20052;-64
2023/05/24 15:09:51;;;;;;;9.73;2.35;;;16.70;64.60;;;;;;4774290;30;20440;-64
2023/05/24 15:12:17;;;;;;;14.40;3.67;;;16.70;64.60;;;;;;4774453;30;20048;-66
2023/05/24 15:14:43;;;;;;;9.00;2.63;;;16.70;64.60;;;;;;4774329;30;20059;-65
2023/05/24 15:17:10;;;;;;;12.77;3.00;;;16.70;64.80;;;;;;4774117;30;20044;-66
2023/05/24 15:19:36;;;;;;;8.50;2.72;;;16.70;64.90;;;;;;4773750;30;20392;-65
2023/05/24 15:22:02;;;;;;;12.70;3.03;;;16.70;65.00;;;;;;4772602;30;20056;-65
2023/05/24 15:24:27;;;;;;;7.95;2.53;;;16.80;65.20;;;;;;4767895;30;20113;-65
2023/05/24 15:26:53;;;;;;;26.80;3.95;;;16.80;65.30;;;;;;4773670;30;20048;-66
2023/05/24 15:29:20;;;;;;;19.88;4.05;;;16.80;65.50;;;;;;4789775;30;20043;-65
2023/05/24 15:31:46;;;;;;;24.13;4.20;;;16.80;65.70;;;;;;4791224;30;20059;-66
2023/05/24 15:34:11;;;;;;;22.95;3.90;;;16.80;65.90;;;;;;4790974;29;20116;-64
2023/05/24 15:36:37;;;;;;;20.05;3.97;;;16.90;66.30;;;;;;4791514;30;20368;-64
2023/05/24 15:39:06;;;;;;;27.13;4.28;;;16.90;66.30;;;;;;4790630;30;20087;-66
2023/05/24 15:41:32;;;;;;;24.95;4.88;;;16.90;66.70;;;;;;4788803;30;20047;-66
2023/05/24 15:43:59;;;;;;;32.58;4.50;;;16.90;66.80;;;;;;4776429;30;20082;-66
2023/05/24 15:46:25;;;;;;;38.88;6.35;;;16.90;66.90;;;;;;4758054;30;20071;-65
2023/05/24 15:48:51;;;;;;;36.85;5.45;;;16.90;67.10;;;;;;4777343;29;20071;-65
2023/05/24 15:51:18;;;;;;;29.90;5.50;;;16.90;67.20;;;;;;4773499;30;20068;-66
2023/05/24 15:53:44;;;;;;;42.03;5.90;;;16.90;67.30;;;;;;4757863;30;20063;-64
2023/05/24 15:56:10;;;;;;;41.35;6.45;;;17.00;67.50;;;;;;4759057;30;20369;-65
2023/05/24 15:58:36;;;;;;;40.72;5.65;;;17.00;67.70;;;;;;4773149;30;20059;-66
2023/05/24 16:01:02;;;;;;;45.63;6.72;;;17.00;67.90;;;;;;4773120;30;20059;-67
2023/05/24 16:03:28;;;;;;;51.60;7.32;;;17.00;67.80;;;;;;4787566;30;20051;-66
2023/05/24 16:05:53;;;;;;;46.60;6.97;;;17.00;68.10;;;;;;4774904;30;20059;-66
2023/05/24 16:08:26;;;;;;;28.48;5.10;;;17.00;68.10;;;;;;4774177;30;20552;-66
2023/05/24 16:10:52;;;;;;;39.75;5.38;;;17.00;67.80;;;;;;4757921;30;20131;-68
2023/05/24 16:13:18;;;;;;;51.47;7.93;;;17.00;67.80;;;;;;4772386;30;20048;-65
2023/05/24 16:15:50;;;;;;;41.58;6.68;;;17.10;68.00;;;;;;4772913;30;20074;-65
2023/05/24 16:18:22;;;;;;;43.97;6.18;;;17.10;67.80;;;;;;4773017;30;20396;-66
2023/05/24 16:20:48;;;;;;;27.15;5.00;;;17.10;67.50;;;;;;4772814;30;20155;-65
2023/05/24 16:23:15;;;;;;;23.83;4.03;;;17.10;67.10;;;;;;4773825;30;20063;-68
2023/05/24 16:25:42;;;;;;;24.67;4.25;;;17.10;66.80;;;;;;4773634;30;20071;-66
2023/05/24 16:28:08;;;;;;;19.38;4.10;;;17.20;66.70;;;;;;4772783;30;20058;-66
2023/05/24 16:30:35;;;;;;;38.25;5.25;;;17.20;66.50;;;;;;4772718;30;20055;-67
2023/05/24 16:33:01;;;;;;;25.63;4.30;;;17.20;66.70;;;;;;4772939;30;20044;-66
2023/05/24 16:35:27;;;;;;;27.77;5.00;;;17.20;67.00;;;;;;4772392;30;20144;-66
2023/05/24 18:11:11;;;;;;;8.55;2.15;;;17.30;67.00;;;;;;4769741;30;20109;-67
2023/05/24 18:13:38;;;;;;;8.05;2.00;;;17.30;65.30;;;;;;4779211;30;20047;-67
2023/05/24 18:16:05;;;;;;;5.07;2.00;;;17.20;63.80;;;;;;4789553;30;20059;-67
2023/05/24 18:18:31;;;;;;;4.75;1.75;;;17.10;63.40;;;;;;4789398;29;20043;-67
2023/05/24 18:20:57;;;;;;;6.32;2.10;;;17.10;63.30;;;;;;4789461;30;20066;-68
2023/05/24 18:23:23;;;;;;;6.28;2.30;;;16.90;63.20;;;;;;4789092;30;20051;-68
2023/05/24 18:25:49;;;;;;;8.50;1.88;;;16.90;63.00;;;;;;4789380;29;20088;-67
2023/05/24 18:28:14;;;;;;;5.38;2.15;;;16.80;63.10;;;;;;4778836;30;20067;-68
2023/05/24 18:30:43;;;;;;;8.63;2.58;;;16.70;63.00;;;;;;4775648;30;20431;-69
2023/05/24 18:33:09;;;;;;;11.25;2.72;;;16.70;63.10;;;;;;4786677;30;20081;-67
2023/05/24 18:35:35;;;;;;;7.32;2.30;;;16.70;63.60;;;;;;4792584;30;20057;-67
2023/05/24 18:38:00;;;;;;;8.68;1.80;;;16.80;64.10;;;;;;4792486;29;20051;-67
2023/05/24 18:40:26;;;;;;;5.88;1.80;;;16.80;64.40;;;;;;4792456;29;20058;-67
2023/05/24 18:42:52;;;;;;;7.50;1.80;;;16.80;64.40;;;;;;4792636;30;20116;-67
2023/05/24 18:45:18;;;;;;;4.72;1.98;;;16.90;64.90;;;;;;4792299;30;20055;-67
2023/05/24 18:47:44;;;;;;;6.35;2.13;;;16.90;65.70;;;;;;4792660;29;20051;-67
2023/05/24 18:50:10;;;;;;;7.55;2.15;;;16.90;65.20;;;;;;4792600;29;20047;-67
2023/05/24 18:52:35;;;;;;;5.28;2.22;;;17.00;65.30;;;;;;4792442;30;20061;-67
2023/05/24 18:55:09;;;;;;;9.52;1.98;;;16.90;65.40;;;;;;4780850;30;20044;-67
2023/05/24 18:57:36;;;;;;;6.22;1.90;;;17.00;65.50;;;;;;4774630;30;20051;-67
2023/05/24 19:00:03;;;;;;;10.77;2.53;;;17.00;65.50;;;;;;4774515;30;20059;-67